Terminal Aerodrome Forecast
Issued by NWS Sioux Falls, SD

Home | Current Version | Previous Version | Text Only | Print | Product List | Glossary On
Versions: 1 2 3 4 5 6 7 8 9 10 11 12 13 14 15 16
937
FTUS43 KFSD 301733
TAFHON
TAF
KHON 301733Z 3018/0118 32016G24KT P6SM -SN OVC015
     FM302000 32016G24KT P6SM VCSH OVC015
     FM302300 31014KT P6SM OVC015
     FM011100 31009KT P6SM OVC015
     FM011400 31008KT P6SM OVC008
     FM011700 31008KT P6SM OVC010=

USA.gov is the U.S. government's official web portal to all federal, state and local government web resources and services.